Time,TemperatureF,DewpointF,PressureIn,WindDirection,WindDirectionDegrees,WindSpeedMPH,WindSpeedGustMPH,Humidity,HourlyPrecipIn,Conditions,Clouds,dailyrainin,SoftwareType,DateUTC
2013-09-04 00:01:00,54.1,54.1,30.39,East,90,0.0,0.0,100,0.00,,,0.00,WSDL version 420,2013-09-03 14:01:00,
2013-09-04 00:06:00,53.8,53.8,30.39,East,90,0.0,0.0,100,0.00,,,0.00,WSDL version 420,2013-09-03 14:06:00,
2013-09-04 00:11:00,53.6,53.6,30.39,East,90,0.0,0.0,100,0.00,,,0.00,WSDL version 420,2013-09-03 14:11:00,
2013-09-04 00:16:00,53.6,53.6,30.39,SE,135,0.0,0.0,100,0.00,,,0.00,WSDL version 420,2013-09-03 14:16:00,
2013-09-04 00:21:00,53.4,53.4,30.39,SE,135,0.0,0.0,100,0.00,,,0.00,WSDL version 420,2013-09-03 14:21:00,
2013-09-04 00:26:00,53.4,53.4,30.36,SE,135,0.0,0.0,100,0.00,,,0.00,WSDL version 420,2013-09-03 14:26:00,
2013-09-04 00:31:00,53.2,53.2,30.36,SE,135,0.0,0.0,100,0.00,,,0.00,WSDL version 420,2013-09-03 14:31:00,
2013-09-04 00:36:00,52.8,52.8,30.36,SW,225,0.0,0.0,100,0.00,,,0.00,WSDL version 420,2013-09-03 14:36:00,
2013-09-04 00:41:00,52.5,52.5,30.36,SW,225,0.0,0.0,100,0.00,,,0.00,WSDL version 420,2013-09-03 14:41:00,
2013-09-04 00:46:00,52.1,52.1,30.36,WSW,248,0.0,0.0,100,0.00,,,0.00,WSDL version 420,2013-09-03 14:46:00,
2013-09-04 00:51:00,51.9,51.9,30.36,WSW,248,0.0,0.0,100,-99.99,,,-99.99,WSDL version 420,2013-09-03 14:51:00,
2013-09-04 00:56:00,51.6,51.6,30.36,SSW,209,0.0,0.0,100,0.00,,,0.00,WSDL version 420,2013-09-03 14:56:00,
2013-09-04 01:01:00,51.8,51.8,30.36,SE,141,0.0,0.0,100,0.00,,,0.00,WSDL version 420,2013-09-03 15:01:00,
2013-09-04 01:06:00,51.7,51.7,30.36,SSW,203,0.0,0.0,100,0.00,,,0.00,WSDL version 420,2013-09-03 15:06:00,
2013-09-04 01:11:00,51.6,51.6,30.36,SW,222,0.0,0.0,100,-99.99,,,-99.99,WSDL version 420,2013-09-03 15:11:00,
2013-09-04 01:16:00,51.4,51.3,30.36,WNW,300,0.0,0.0,100,0.00,,,0.00,WSDL version 420,2013-09-03 15:16:00,
2013-09-04 01:21:00,51.2,51.2,30.36,WNW,293,0.0,0.0,100,0.00,,,0.00,WSDL version 420,2013-09-03 15:21:00,
2013-09-04 01:26:00,51.1,51.1,30.36,WNW,293,0.0,0.0,100,0.00,,,0.00,WSDL version 420,2013-09-03 15:26:00,
2013-09-04 01:31:00,50.9,50.9,30.36,SW,236,0.0,0.0,100,0.00,,,0.00,WSDL version 420,2013-09-03 15:31:00,
2013-09-04 01:36:00,50.8,50.8,30.36,SSW,205,0.0,0.0,100,0.00,,,0.00,WSDL version 420,2013-09-03 15:36:00,
2013-09-04 01:41:00,50.7,50.7,30.33,SW,225,0.0,0.0,100,0.00,,,0.00,WSDL version 420,2013-09-03 15:41:00,
2013-09-04 01:46:00,50.7,50.7,30.33,SW,225,0.0,0.0,100,0.00,,,0.00,WSDL version 420,2013-09-03 15:46:00,
2013-09-04 01:51:00,50.5,50.5,30.33,SW,225,0.0,0.0,100,0.00,,,0.00,WSDL version 420,2013-09-03 15:51:00,
2013-09-04 01:56:00,50.5,50.5,30.33,SE,135,0.0,0.0,100,0.00,,,0.00,WSDL version 420,2013-09-03 15:56:00,
2013-09-04 02:01:00,50.5,50.5,30.33,SE,135,0.0,0.0,100,0.00,,,0.00,WSDL version 420,2013-09-03 16:01:00,
2013-09-04 02:06:00,50.5,50.5,30.33,SE,135,0.0,0.0,100,0.00,,,0.00,WSDL version 420,2013-09-03 16:06:00,
2013-09-04 02:11:00,50.7,50.7,30.33,SE,135,0.0,0.0,100,0.00,,,0.00,WSDL version 420,2013-09-03 16:11:00,
2013-09-04 02:16:00,50.5,50.5,30.33,South,180,0.0,0.0,100,0.00,,,0.00,WSDL version 420,2013-09-03 16:16:00,
2013-09-04 02:21:00,50.2,50.2,30.33,South,186,0.0,0.0,100,0.00,,,0.00,WSDL version 420,2013-09-03 16:21:00,
2013-09-04 02:26:00,50.1,50.1,30.30,SW,225,0.0,0.0,100,0.00,,,0.00,WSDL version 420,2013-09-03 16:26:00,
2013-09-04 02:31:00,50.0,50.0,30.30,SW,225,0.0,0.0,100,0.00,,,0.00,WSDL version 420,2013-09-03 16:31:00,
2013-09-04 02:36:00,49.7,49.7,30.30,SW,225,0.0,0.0,100,0.00,,,0.00,WSDL version 420,2013-09-03 16:36:00,
2013-09-04 02:41:00,49.6,49.6,30.33,WSW,248,0.0,0.0,100,-99.99,,,-99.99,WSDL version 420,2013-09-03 16:41:00,
2013-09-04 02:46:00,49.6,49.6,30.33,WSW,248,0.0,0.0,100,0.00,,,0.00,WSDL version 420,2013-09-03 16:46:00,
2013-09-04 02:51:00,49.5,49.5,30.33,WSW,248,0.0,0.0,100,0.00,,,0.00,WSDL version 420,2013-09-03 16:51:00,
2013-09-04 02:56:00,49.5,49.5,30.36,WSW,248,0.0,0.0,100,0.00,,,0.00,WSDL version 420,2013-09-03 16:56:00,
2013-09-04 03:01:00,49.5,49.5,30.36,WSW,248,0.0,0.0,100,0.00,,,0.00,WSDL version 420,2013-09-03 17:01:00,
2013-09-04 03:06:00,49.3,49.3,30.36,WSW,248,0.0,0.0,100,0.00,,,0.00,WSDL version 420,2013-09-03 17:06:00,
2013-09-04 03:11:00,49.2,49.2,30.33,WSW,248,0.0,0.0,100,0.00,,,0.00,WSDL version 420,2013-09-03 17:11:00,
2013-09-04 03:16:00,49.1,49.1,30.33,SW,225,0.0,0.0,100,0.00,,,0.00,WSDL version 420,2013-09-03 17:16:00,
2013-09-04 03:21:00,49.3,49.3,30.33,WSW,248,0.0,0.0,100,0.00,,,0.00,WSDL version 420,2013-09-03 17:21:00,
2013-09-04 03:26:00,49.3,49.3,30.33,WSW,248,0.0,0.0,100,0.00,,,0.00,WSDL version 420,2013-09-03 17:26:00,
2013-09-04 03:31:00,49.1,49.1,30.33,West,270,0.0,0.0,100,0.00,,,0.00,WSDL version 420,2013-09-03 17:31:00,
2013-09-04 03:36:00,49.1,49.1,30.33,West,279,0.0,0.0,100,0.00,,,0.00,WSDL version 420,2013-09-03 17:36:00,
2013-09-04 03:41:00,49.5,49.5,30.33,ENE,61,0.0,0.0,100,0.00,,,0.00,WSDL version 420,2013-09-03 17:41:00,
2013-09-04 03:46:00,49.9,49.9,30.33,SE,125,0.0,0.0,100,0.00,,,0.00,WSDL version 420,2013-09-03 17:46:00,
2013-09-04 03:51:00,50.0,50.0,30.33,NE,51,0.0,0.0,100,0.00,,,0.00,WSDL version 420,2013-09-03 17:51:00,
2013-09-04 03:56:00,49.9,49.9,30.33,SE,132,0.0,0.0,100,-99.99,,,-99.99,WSDL version 420,2013-09-03 17:56:00,
2013-09-04 04:01:00,50.3,50.3,30.33,East,100,0.0,1.6,100,0.00,,,0.00,WSDL version 420,2013-09-03 18:01:00,
2013-09-04 04:06:00,50.9,50.9,30.33,North,360,0.0,1.6,100,0.00,,,0.00,WSDL version 420,2013-09-03 18:06:00,
2013-09-04 04:11:00,50.5,50.5,30.33,NW,315,0.0,1.3,100,0.00,,,0.00,WSDL version 420,2013-09-03 18:11:00,
2013-09-04 04:16:00,50.4,50.4,30.33,SE,127,0.0,1.6,100,0.00,,,0.00,WSDL version 420,2013-09-03 18:16:00,
2013-09-04 04:21:00,50.9,50.9,30.33,NW,311,0.0,1.6,100,0.00,,,0.00,WSDL version 420,2013-09-03 18:21:00,
2013-09-04 04:26:00,50.6,50.6,30.33,East,96,0.0,1.1,100,0.00,,,0.00,WSDL version 420,2013-09-03 18:26:00,
2013-09-04 04:31:00,51.3,51.3,30.33,SE,129,0.0,1.1,100,0.00,,,0.00,WSDL version 420,2013-09-03 18:31:00,
2013-09-04 04:36:00,51.6,51.6,30.33,WSW,244,0.0,0.0,100,0.00,,,0.00,WSDL version 420,2013-09-03 18:36:00,
2013-09-04 04:41:00,52.0,52.0,30.33,SE,135,0.0,0.0,100,0.00,,,0.00,WSDL version 420,2013-09-03 18:41:00,
2013-09-04 04:46:00,52.4,52.4,30.33,SSE,151,0.0,0.0,100,0.00,,,0.00,WSDL version 420,2013-09-03 18:46:00,
2013-09-04 04:51:00,52.6,52.6,30.33,SE,141,1.1,2.5,100,0.00,,,0.00,WSDL version 420,2013-09-03 18:51:00,
2013-09-04 04:56:00,53.0,53.0,30.33,SE,131,1.1,2.7,100,0.00,,,0.00,WSDL version 420,2013-09-03 18:56:00,
2013-09-04 05:01:00,53.4,53.4,30.33,South,180,0.0,3.1,100,0.00,,,0.00,WSDL version 420,2013-09-03 19:01:00,
2013-09-04 05:06:00,53.5,53.5,30.33,ESE,116,0.0,3.1,100,0.00,,,0.00,WSDL version 420,2013-09-03 19:06:00,
2013-09-04 05:11:00,53.2,53.2,30.33,WSW,248,0.0,1.3,100,0.00,,,0.00,WSDL version 420,2013-09-03 19:11:00,
2013-09-04 05:16:00,52.7,52.7,30.33,SE,127,0.0,0.0,100,0.00,,,0.00,WSDL version 420,2013-09-03 19:16:00,
2013-09-04 05:21:00,52.9,52.9,30.33,ESE,113,0.6,2.5,100,-99.99,,,-99.99,WSDL version 420,2013-09-03 19:21:00,
2013-09-04 05:26:00,53.1,53.1,30.33,ENE,77,0.0,2.7,100,0.00,,,0.00,WSDL version 420,2013-09-03 19:26:00,
2013-09-04 05:31:00,53.1,53.1,30.33,SSE,154,1.0,2.7,100,0.00,,,0.00,WSDL version 420,2013-09-03 19:31:00,
2013-09-04 05:36:00,53.0,53.0,30.33,SSE,154,0.0,2.0,100,0.00,,,0.00,WSDL version 420,2013-09-03 19:36:00,
2013-09-04 05:41:00,52.6,52.6,30.33,SE,135,0.0,0.0,100,0.00,,,0.00,WSDL version 420,2013-09-03 19:41:00,
2013-09-04 05:46:00,52.3,52.3,30.33,ESE,113,0.0,0.0,100,0.00,,,0.00,WSDL version 420,2013-09-03 19:46:00,
2013-09-04 05:51:00,52.2,52.2,30.33,ESE,113,1.3,2.0,100,0.00,,,0.00,WSDL version 420,2013-09-03 19:51:00,
2013-09-04 05:56:00,51.9,51.9,30.33,SE,143,0.0,2.5,100,0.00,,,0.00,WSDL version 420,2013-09-03 19:56:00,
2013-09-04 06:01:00,51.8,51.8,30.33,ESE,122,0.2,2.5,100,0.00,,,0.00,WSDL version 420,2013-09-03 20:01:00,
2013-09-04 06:06:00,51.6,51.6,30.33,North,360,0.0,1.6,100,0.00,,,0.00,WSDL version 420,2013-09-03 20:06:00,
2013-09-04 06:11:00,51.5,51.5,30.33,SE,129,0.0,0.0,100,0.00,,,0.00,WSDL version 420,2013-09-03 20:11:00,
2013-09-04 06:16:00,-999.0,-99.9,30.33,ESE,109,0.0,0.0,-999,0.00,,,0.00,WSDL version 420,2013-09-03 20:16:00,
2013-09-04 06:21:00,51.7,51.7,30.33,East,98,0.7,1.6,100,0.00,,,0.00,WSDL version 420,2013-09-03 20:21:00,
2013-09-04 06:26:00,51.6,51.6,30.33,SE,128,0.0,1.6,100,0.00,,,0.00,WSDL version 420,2013-09-03 20:26:00,
2013-09-04 06:31:00,51.6,51.6,30.33,WNW,296,0.2,1.6,100,0.00,,,0.00,WSDL version 420,2013-09-03 20:31:00,
2013-09-04 06:36:00,51.4,51.4,30.33,NE,51,0.0,1.3,100,0.00,,,0.00,WSDL version 420,2013-09-03 20:36:00,
2013-09-04 06:41:00,51.3,51.3,30.33,SE,135,0.0,1.3,100,0.00,,,0.00,WSDL version 420,2013-09-03 20:41:00,
2013-09-04 06:46:00,51.2,51.2,30.33,East,96,1.0,2.0,100,0.00,,,0.00,WSDL version 420,2013-09-03 20:46:00,
2013-09-04 06:51:00,52.4,52.4,30.33,East,83,0.0,2.0,100,0.00,,,0.00,WSDL version 420,2013-09-03 20:51:00,
2013-09-04 06:56:00,55.9,55.9,30.33,SE,141,0.0,2.0,100,0.00,,,0.00,WSDL version 420,2013-09-03 20:56:00,
2013-09-04 07:01:00,-999.0,-99.9,30.33,East,86,0.0,2.5,-999,0.00,,,0.00,WSDL version 420,2013-09-03 21:01:00,
2013-09-04 07:06:00,59.2,59.2,30.33,ESE,122,0.0,2.5,100,0.00,,,0.00,WSDL version 420,2013-09-03 21:06:00,
2013-09-04 07:11:00,59.9,59.9,30.36,ENE,74,0.9,2.2,100,-99.99,,,-99.99,WSDL version 420,2013-09-03 21:11:00,
2013-09-04 07:16:00,60.3,60.3,30.36,ESE,109,0.4,2.5,100,0.00,,,0.00,WSDL version 420,2013-09-03 21:16:00,
2013-09-04 07:21:00,60.4,60.4,30.36,SE,131,0.7,2.9,100,0.00,,,0.00,WSDL version 420,2013-09-03 21:21:00,
2013-09-04 07:26:00,60.7,60.7,30.36,WNW,283,1.3,2.9,100,0.00,,,0.00,WSDL version 420,2013-09-03 21:26:00,
2013-09-04 07:31:00,60.3,60.3,30.36,North,360,1.4,2.5,100,0.00,,,0.00,WSDL version 420,2013-09-03 21:31:00,
2013-09-04 07:36:00,60.7,60.7,30.36,ENE,70,1.9,2.5,100,0.00,,,0.00,WSDL version 420,2013-09-03 21:36:00,
2013-09-04 07:41:00,61.2,61.0,30.36,East,90,1.3,2.7,99,0.00,,,0.00,WSDL version 420,2013-09-03 21:41:00,
2013-09-04 07:46:00,61.6,59.6,30.36,East,93,2.4,3.4,92,0.00,,,0.00,WSDL version 420,2013-09-03 21:46:00,
2013-09-04 07:51:00,62.2,58.9,30.36,ENE,60,1.3,4.3,89,0.00,,,0.00,WSDL version 420,2013-09-03 21:51:00,
2013-09-04 07:56:00,62.6,58.1,30.39,NE,56,2.9,4.3,81,0.00,,,0.00,WSDL version 420,2013-09-03 21:56:00,
2013-09-04 08:01:00,62.8,56.8,30.39,ENE,64,2.6,5.4,79,-99.99,,,-99.99,WSDL version 420,2013-09-03 22:01:00,
2013-09-04 08:06:00,63.3,56.7,30.39,ENE,73,2.2,5.4,78,0.00,,,0.00,WSDL version 420,2013-09-03 22:06:00,
2013-09-04 08:11:00,63.6,55.1,30.39,ENE,76,4.3,6.0,72,0.00,,,0.00,WSDL version 420,2013-09-03 22:11:00,
2013-09-04 08:16:00,63.6,53.9,30.39,East,101,3.2,6.0,71,0.00,,,0.00,WSDL version 420,2013-09-03 22:16:00,
2013-09-04 08:21:00,64.0,54.2,30.39,NNE,26,4.0,5.8,70,0.00,,,0.00,WSDL version 420,2013-09-03 22:21:00,
2013-09-04 08:26:00,64.6,54.2,30.39,NNW,347,3.0,5.8,69,0.00,,,0.00,WSDL version 420,2013-09-03 22:26:00,
2013-09-04 08:31:00,65.3,54.6,30.39,NNE,23,2.6,4.9,68,0.00,,,0.00,WSDL version 420,2013-09-03 22:31:00,
2013-09-04 08:36:00,66.2,55.3,30.39,ENE,68,2.3,5.8,68,0.00,,,0.00,WSDL version 420,2013-09-03 22:36:00,
2013-09-04 08:41:00,67.1,55.0,30.36,NE,41,2.8,5.8,64,0.00,,,0.00,WSDL version 420,2013-09-03 22:41:00,
2013-09-04 08:46:00,67.5,54.0,30.36,ENE,75,3.5,5.4,61,0.00,,,0.00,WSDL version 420,2013-09-03 22:46:00,
2013-09-04 08:51:00,67.6,52.8,30.36,NNW,334,4.3,6.5,58,-99.99,,,-99.99,WSDL version 420,2013-09-03 22:51:00,
2013-09-04 08:56:00,68.0,52.5,30.39,ESE,110,2.4,6.5,58,0.00,,,0.00,WSDL version 420,2013-09-03 22:56:00,
2013-09-04 09:01:00,68.4,52.9,30.39,NNW,328,4.2,6.0,57,0.00,,,0.00,WSDL version 420,2013-09-03 23:01:00,
2013-09-04 09:06:00,68.7,52.2,30.39,NW,326,2.8,7.4,56,0.00,,,0.00,WSDL version 420,2013-09-03 23:06:00,
2013-09-04 09:11:00,69.0,51.8,30.39,North,8,5.4,9.8,54,0.00,,,0.00,WSDL version 420,2013-09-03 23:11:00,
2013-09-04 09:16:00,69.3,52.4,30.39,NE,49,3.0,9.8,55,-99.99,,,-99.99,WSDL version 420,2013-09-03 23:16:00,
2013-09-04 09:21:00,70.0,52.1,30.39,North,353,3.7,6.3,52,0.00,,,0.00,WSDL version 420,2013-09-03 23:21:00,
2013-09-04 09:26:00,70.6,51.8,30.39,NNW,338,3.7,6.3,51,0.00,,,0.00,WSDL version 420,2013-09-03 23:26:00,
2013-09-04 09:31:00,70.9,51.8,30.39,NNE,19,3.7,6.3,51,0.00,,,0.00,WSDL version 420,2013-09-03 23:31:00,
2013-09-04 09:36:00,71.2,51.3,30.39,NNW,338,4.6,8.7,49,0.00,,,0.00,WSDL version 420,2013-09-03 23:36:00,
2013-09-04 09:41:00,71.0,50.7,30.39,NE,51,4.5,8.7,47,0.00,,,0.00,WSDL version 420,2013-09-03 23:41:00,
2013-09-04 09:46:00,70.2,49.8,30.39,NE,56,4.6,7.8,48,0.00,,,0.00,WSDL version 420,2013-09-03 23:46:00,
2013-09-04 09:51:00,71.2,50.8,30.39,North,3,3.4,7.8,48,0.00,,,0.00,WSDL version 420,2013-09-03 23:51:00,
2013-09-04 09:56:00,71.7,50.1,30.36,ENE,74,5.2,10.5,46,0.00,,,0.00,WSDL version 420,2013-09-03 23:56:00,
2013-09-04 10:01:00,71.8,50.2,30.36,North,357,4.1,10.5,45,0.00,,,0.00,WSDL version 420,2013-09-04 00:01:00,
2013-09-04 10:06:00,71.9,49.3,30.36,NNW,338,4.2,7.8,45,0.00,,,0.00,WSDL version 420,2013-09-04 00:06:00,
2013-09-04 10:11:00,71.9,49.6,30.39,North,354,4.9,10.1,45,0.00,,,0.00,WSDL version 420,2013-09-04 00:11:00,
2013-09-04 10:16:00,72.6,50.5,30.39,NW,318,4.4,10.1,45,0.00,,,0.00,WSDL version 420,2013-09-04 00:16:00,
2013-09-04 10:21:00,73.2,50.0,30.39,NW,318,4.1,7.6,43,0.00,,,0.00,WSDL version 420,2013-09-04 00:21:00,
2013-09-04 10:26:00,73.5,49.6,30.39,NNW,338,3.7,8.1,43,0.00,,,0.00,WSDL version 420,2013-09-04 00:26:00,
2013-09-04 10:31:00,73.6,50.2,30.39,NE,45,4.2,8.1,44,0.00,,,0.00,WSDL version 420,2013-09-04 00:31:00,
2013-09-04 10:36:00,73.2,49.2,30.39,ENE,68,5.3,10.1,43,0.00,,,0.00,WSDL version 420,2013-09-04 00:36:00,
2013-09-04 10:41:00,73.0,48.9,30.39,NNE,30,4.3,10.1,42,0.00,,,0.00,WSDL version 420,2013-09-04 00:41:00,
2013-09-04 10:46:00,73.4,48.9,30.39,ENE,68,3.4,8.7,42,0.00,,,0.00,WSDL version 420,2013-09-04 00:46:00,
2013-09-04 10:51:00,73.7,49.1,30.39,NE,51,4.5,8.7,42,0.00,,,0.00,WSDL version 420,2013-09-04 00:51:00,
2013-09-04 10:56:00,74.8,49.8,30.39,NNW,341,4.2,7.2,42,0.00,,,0.00,WSDL version 420,2013-09-04 00:56:00,
2013-09-04 11:01:00,75.6,50.9,30.39,NNE,19,5.6,10.3,42,-99.99,,,-99.99,WSDL version 420,2013-09-04 01:01:00,
2013-09-04 11:06:00,75.3,50.3,30.39,NE,53,3.4,10.3,42,0.00,,,0.00,WSDL version 420,2013-09-04 01:06:00,
2013-09-04 11:11:00,75.4,50.1,30.39,East,83,4.7,6.5,41,0.00,,,0.00,WSDL version 420,2013-09-04 01:11:00,
2013-09-04 11:16:00,75.6,50.1,30.39,East,96,4.9,7.6,40,0.00,,,0.00,WSDL version 420,2013-09-04 01:16:00,
2013-09-04 11:21:00,75.2,49.5,30.39,NE,34,5.4,8.1,40,0.00,,,0.00,WSDL version 420,2013-09-04 01:21:00,
2013-09-04 11:26:00,75.2,49.4,30.39,ENE,72,7.0,13.2,40,0.00,,,0.00,WSDL version 420,2013-09-04 01:26:00,
2013-09-04 11:31:00,74.4,49.2,30.39,NNE,16,4.3,13.2,42,0.00,,,0.00,WSDL version 420,2013-09-04 01:31:00,
2013-09-04 11:36:00,76.6,50.7,30.39,NW,305,3.9,8.1,40,0.00,,,0.00,WSDL version 420,2013-09-04 01:36:00,
2013-09-04 11:41:00,76.4,49.2,30.39,NE,34,3.9,9.4,38,0.00,,,0.00,WSDL version 420,2013-09-04 01:41:00,
2013-09-04 11:46:00,76.3,48.7,30.39,East,87,5.4,9.4,36,0.00,,,0.00,WSDL version 420,2013-09-04 01:46:00,
2013-09-04 11:51:00,76.1,48.3,30.39,NNE,25,4.4,8.7,38,-99.99,,,-99.99,WSDL version 420,2013-09-04 01:51:00,
2013-09-04 11:56:00,76.8,49.0,30.36,ESE,119,3.8,7.8,38,0.00,,,0.00,WSDL version 420,2013-09-04 01:56:00,
2013-09-04 12:01:00,76.3,48.6,30.36,ESE,104,2.4,7.4,39,0.00,,,0.00,WSDL version 420,2013-09-04 02:01:00,
2013-09-04 12:06:00,78.0,51.1,30.36,ENE,59,3.0,6.5,39,0.00,,,0.00,WSDL version 420,2013-09-04 02:06:00,
2013-09-04 12:11:00,76.9,48.4,30.33,East,83,6.2,6.9,37,0.00,,,0.00,WSDL version 420,2013-09-04 02:11:00,
2013-09-04 12:16:00,76.1,48.4,30.33,ENE,71,5.2,10.7,37,0.00,,,0.00,WSDL version 420,2013-09-04 02:16:00,
2013-09-04 12:21:00,76.4,48.9,30.33,NE,53,3.4,10.7,38,0.00,,,0.00,WSDL version 420,2013-09-04 02:21:00,
2013-09-04 12:26:00,77.5,52.0,30.30,NE,51,2.6,8.5,41,0.00,,,0.00,WSDL version 420,2013-09-04 02:26:00,
2013-09-04 12:31:00,78.0,52.6,30.30,NE,50,4.7,8.5,41,0.00,,,0.00,WSDL version 420,2013-09-04 02:31:00,
2013-09-04 12:36:00,77.8,52.2,30.30,NNE,23,5.4,8.7,41,0.00,,,0.00,WSDL version 420,2013-09-04 02:36:00,
2013-09-04 12:41:00,78.3,52.0,30.33,NNE,29,3.7,8.7,40,0.00,,,0.00,WSDL version 420,2013-09-04 02:41:00,
2013-09-04 12:46:00,79.6,53.2,30.33,NE,45,3.1,5.8,40,0.00,,,0.00,WSDL version 420,2013-09-04 02:46:00,
2013-09-04 12:51:00,78.6,51.4,30.33,NNE,14,4.4,8.5,38,0.00,,,0.00,WSDL version 420,2013-09-04 02:51:00,
2013-09-04 12:56:00,77.9,51.3,30.33,NNE,32,4.9,9.2,40,0.00,,,0.00,WSDL version 420,2013-09-04 02:56:00,
2013-09-04 13:01:00,77.5,51.3,30.33,East,83,3.7,9.2,40,0.00,,,0.00,WSDL version 420,2013-09-04 03:01:00,
2013-09-04 13:06:00,76.7,50.9,30.33,NE,53,7.0,10.5,42,0.00,,,0.00,WSDL version 420,2013-09-04 03:06:00,
2013-09-04 13:11:00,75.8,50.8,30.33,East,87,4.5,10.5,42,0.00,,,0.00,WSDL version 420,2013-09-04 03:11:00,
2013-09-04 13:16:00,76.9,52.1,30.33,East,96,3.8,7.4,42,0.00,,,0.00,WSDL version 420,2013-09-04 03:16:00,
2013-09-04 13:21:00,76.4,51.7,30.33,East,90,6.9,12.1,43,0.00,,,0.00,WSDL version 420,2013-09-04 03:21:00,
2013-09-04 13:26:00,76.2,52.1,30.33,East,87,3.7,12.1,43,0.00,,,0.00,WSDL version 420,2013-09-04 03:26:00,
2013-09-04 13:31:00,76.0,51.8,30.33,ENE,64,5.5,10.1,43,0.00,,,0.00,WSDL version 420,2013-09-04 03:31:00,
2013-09-04 13:36:00,76.1,52.0,30.33,ENE,71,5.7,10.3,43,0.00,,,0.00,WSDL version 420,2013-09-04 03:36:00,
2013-09-04 13:41:00,75.1,52.0,30.33,NE,35,5.9,11.0,45,0.00,,,0.00,WSDL version 420,2013-09-04 03:41:00,
2013-09-04 13:46:00,76.0,52.8,30.33,NE,38,4.7,11.0,44,0.00,,,0.00,WSDL version 420,2013-09-04 03:46:00,
2013-09-04 13:51:00,75.4,52.8,30.33,ENE,65,6.1,10.3,46,0.00,,,0.00,WSDL version 420,2013-09-04 03:51:00,
2013-09-04 13:56:00,75.7,52.9,30.33,NNE,13,6.6,10.3,45,0.00,,,0.00,WSDL version 420,2013-09-04 03:56:00,
2013-09-04 14:01:00,75.1,52.8,30.33,NE,56,5.4,12.5,46,0.00,,,0.00,WSDL version 420,2013-09-04 04:01:00,
2013-09-04 14:06:00,74.7,53.2,30.33,ENE,64,6.3,12.5,47,0.00,,,0.00,WSDL version 420,2013-09-04 04:06:00,
2013-09-04 14:11:00,74.5,53.3,30.30,NE,42,5.3,12.1,48,0.00,,,0.00,WSDL version 420,2013-09-04 04:11:00,
2013-09-04 14:16:00,74.7,53.0,30.30,East,93,6.4,10.3,47,0.00,,,0.00,WSDL version 420,2013-09-04 04:16:00,
2013-09-04 14:21:00,74.3,52.8,30.30,NE,48,5.8,10.3,48,0.00,,,0.00,WSDL version 420,2013-09-04 04:21:00,
2013-09-04 14:26:00,74.4,52.8,30.30,ENE,75,5.1,9.8,47,0.00,,,0.00,WSDL version 420,2013-09-04 04:26:00,
2013-09-04 14:31:00,74.4,53.3,30.30,East,101,3.7,10.7,48,0.00,,,0.00,WSDL version 420,2013-09-04 04:31:00,
2013-09-04 14:36:00,74.8,53.2,30.30,East,84,3.7,10.7,47,0.00,,,0.00,WSDL version 420,2013-09-04 04:36:00,
2013-09-04 14:41:00,75.7,53.5,30.30,ENE,72,4.0,7.8,46,0.00,,,0.00,WSDL version 420,2013-09-04 04:41:00,
2013-09-04 14:46:00,75.5,52.7,30.30,ENE,65,5.4,7.8,45,0.00,,,0.00,WSDL version 420,2013-09-04 04:46:00,
2013-09-04 14:51:00,75.4,52.9,30.30,East,84,6.4,8.9,45,0.00,,,0.00,WSDL version 420,2013-09-04 04:51:00,
2013-09-04 14:56:00,75.4,52.7,30.30,NE,48,4.8,10.1,45,0.00,,,0.00,WSDL version 420,2013-09-04 04:56:00,
2013-09-04 15:01:00,74.9,52.2,30.30,East,84,6.5,10.3,45,0.00,,,0.00,WSDL version 420,2013-09-04 05:01:00,
2013-09-04 15:06:00,73.9,52.0,30.30,East,84,6.8,12.8,47,0.00,,,0.00,WSDL version 420,2013-09-04 05:06:00,
2013-09-04 15:11:00,73.5,52.6,30.27,NE,56,6.3,12.8,48,0.00,,,0.00,WSDL version 420,2013-09-04 05:11:00,
2013-09-04 15:16:00,74.0,53.5,30.27,NNE,26,2.6,9.6,48,0.00,,,0.00,WSDL version 420,2013-09-04 05:16:00,
2013-09-04 15:21:00,74.8,53.9,30.27,ENE,75,3.8,9.4,48,0.00,,,0.00,WSDL version 420,2013-09-04 05:21:00,
2013-09-04 15:26:00,74.6,53.3,30.30,NNE,30,4.8,9.4,48,0.00,,,0.00,WSDL version 420,2013-09-04 05:26:00,
2013-09-04 15:31:00,75.3,54.0,30.30,ENE,65,3.3,8.7,47,0.00,,,0.00,WSDL version 420,2013-09-04 05:31:00,
2013-09-04 15:36:00,75.0,53.4,30.30,ENE,64,3.8,8.1,47,0.00,,,0.00,WSDL version 420,2013-09-04 05:36:00,
2013-09-04 15:41:00,74.7,53.3,30.27,ESE,103,5.2,8.7,48,0.00,,,0.00,WSDL version 420,2013-09-04 05:41:00,
2013-09-04 15:46:00,74.2,53.1,30.27,East,84,6.0,8.7,48,0.00,,,0.00,WSDL version 420,2013-09-04 05:46:00,
2013-09-04 15:51:00,74.2,53.4,30.27,NE,53,3.0,8.5,48,0.00,,,0.00,WSDL version 420,2013-09-04 05:51:00,
2013-09-04 15:56:00,74.2,53.0,30.27,East,84,5.2,8.7,47,0.00,,,0.00,WSDL version 420,2013-09-04 05:56:00,
2013-09-04 16:01:00,74.1,52.6,30.27,NNE,26,4.2,8.7,47,0.00,,,0.00,WSDL version 420,2013-09-04 06:01:00,
2013-09-04 16:06:00,74.1,52.2,30.27,ENE,68,4.3,7.2,46,0.00,,,0.00,WSDL version 420,2013-09-04 06:06:00,
2013-09-04 16:11:00,74.2,52.1,30.27,NE,51,3.0,6.9,46,0.00,,,0.00,WSDL version 420,2013-09-04 06:11:00,
2013-09-04 16:16:00,74.1,51.6,30.27,ENE,77,3.6,5.8,45,0.00,,,0.00,WSDL version 420,2013-09-04 06:16:00,
2013-09-04 16:21:00,73.9,51.6,30.27,East,98,5.6,7.4,46,0.00,,,0.00,WSDL version 420,2013-09-04 06:21:00,
2013-09-04 16:26:00,73.6,51.4,30.24,NE,55,3.5,7.8,45,0.00,,,0.00,WSDL version 420,2013-09-04 06:26:00,
2013-09-04 16:31:00,73.7,51.5,30.24,East,84,3.0,7.8,46,0.00,,,0.00,WSDL version 420,2013-09-04 06:31:00,
2013-09-04 16:36:00,-999.0,-99.9,30.24,NNE,23,4.5,8.5,-999,0.00,,,0.00,WSDL version 420,2013-09-04 06:36:00,
2013-09-04 16:41:00,72.6,51.4,30.27,NW,304,4.6,8.5,48,0.00,,,0.00,WSDL version 420,2013-09-04 06:41:00,
2013-09-04 16:46:00,72.5,51.7,30.27,NNE,23,2.3,6.3,48,0.00,,,0.00,WSDL version 420,2013-09-04 06:46:00,
2013-09-04 16:51:00,72.2,51.6,30.27,NE,48,4.8,6.9,48,0.00,,,0.00,WSDL version 420,2013-09-04 06:51:00,
2013-09-04 16:56:00,71.5,51.6,30.24,North,11,3.6,6.9,50,0.00,,,0.00,WSDL version 420,2013-09-04 06:56:00,
2013-09-04 17:01:00,71.2,52.0,30.24,ENE,58,4.0,6.3,51,0.00,,,0.00,WSDL version 420,2013-09-04 07:01:00,
2013-09-04 17:06:00,70.5,51.9,30.24,NNE,23,2.6,8.7,52,0.00,,,0.00,WSDL version 420,2013-09-04 07:06:00,
2013-09-04 17:11:00,70.0,52.6,30.27,ENE,70,3.7,8.7,55,0.00,,,0.00,WSDL version 420,2013-09-04 07:11:00,
2013-09-04 17:16:00,69.4,52.9,30.27,North,360,2.5,5.8,56,0.00,,,0.00,WSDL version 420,2013-09-04 07:16:00,
2013-09-04 17:21:00,68.7,53.1,30.27,East,98,3.6,9.4,59,0.00,,,0.00,WSDL version 420,2013-09-04 07:21:00,
2013-09-04 17:26:00,67.9,53.5,30.27,NE,38,3.7,9.4,60,0.00,,,0.00,WSDL version 420,2013-09-04 07:26:00,
2013-09-04 17:31:00,67.2,54.0,30.27,NE,41,5.0,6.0,64,0.00,,,0.00,WSDL version 420,2013-09-04 07:31:00,
2013-09-04 17:36:00,66.6,54.7,30.27,NE,41,4.8,8.7,66,-99.99,,,-99.99,WSDL version 420,2013-09-04 07:36:00,
2013-09-04 17:41:00,66.2,54.9,30.24,East,80,4.3,8.7,68,0.00,,,0.00,WSDL version 420,2013-09-04 07:41:00,
2013-09-04 17:46:00,65.8,55.5,30.24,East,90,5.2,7.4,70,0.00,,,0.00,WSDL version 420,2013-09-04 07:46:00,
2013-09-04 17:51:00,65.6,55.5,30.24,ENE,68,4.5,7.6,71,0.00,,,0.00,WSDL version 420,2013-09-04 07:51:00,
2013-09-04 17:56:00,65.4,55.5,30.27,NNE,14,2.9,7.6,71,0.00,,,0.00,WSDL version 420,2013-09-04 07:56:00,
2013-09-04 18:01:00,65.2,55.0,30.27,East,84,3.0,5.4,70,0.00,,,0.00,WSDL version 420,2013-09-04 08:01:00,
2013-09-04 18:06:00,64.9,55.1,30.27,East,90,2.8,6.5,71,0.00,,,0.00,WSDL version 420,2013-09-04 08:06:00,
2013-09-04 18:11:00,64.8,55.1,30.27,East,87,2.8,6.5,71,0.00,,,0.00,WSDL version 420,2013-09-04 08:11:00,
2013-09-04 18:16:00,64.7,55.1,30.27,ENE,70,4.5,7.8,71,0.00,,,0.00,WSDL version 420,2013-09-04 08:16:00,
2013-09-04 18:21:00,64.5,54.6,30.27,East,93,3.0,7.8,70,0.00,,,0.00,WSDL version 420,2013-09-04 08:21:00,
2013-09-04 18:26:00,64.4,54.4,30.30,NW,315,3.5,6.3,70,-99.99,,,-99.99,WSDL version 420,2013-09-04 08:26:00,
2013-09-04 18:31:00,64.2,54.5,30.30,NE,51,3.1,6.5,71,0.00,,,0.00,WSDL version 420,2013-09-04 08:31:00,
2013-09-04 18:36:00,64.2,54.6,30.30,East,100,4.8,7.8,71,0.00,,,0.00,WSDL version 420,2013-09-04 08:36:00,
2013-09-04 18:41:00,64.2,54.6,30.30,ENE,70,3.7,7.8,71,0.00,,,0.00,WSDL version 420,2013-09-04 08:41:00,
2013-09-04 18:46:00,64.0,54.4,30.30,East,83,3.2,6.3,71,0.00,,,0.00,WSDL version 420,2013-09-04 08:46:00,
2013-09-04 18:51:00,63.9,54.5,30.30,NE,53,3.7,5.8,72,0.00,,,0.00,WSDL version 420,2013-09-04 08:51:00,
2013-09-04 18:56:00,63.6,54.3,30.30,East,81,3.8,8.1,72,0.00,,,0.00,WSDL version 420,2013-09-04 08:56:00,
2013-09-04 19:01:00,63.5,54.2,30.30,West,270,1.4,8.1,72,0.00,,,0.00,WSDL version 420,2013-09-04 09:01:00,
2013-09-04 19:06:00,63.3,54.4,30.30,ENE,71,3.2,6.3,73,0.00,,,0.00,WSDL version 420,2013-09-04 09:06:00,
2013-09-04 19:11:00,63.2,54.2,30.30,North,360,1.4,6.0,72,0.00,,,0.00,WSDL version 420,2013-09-04 09:11:00,
2013-09-04 19:16:00,63.0,53.9,30.30,ESE,119,2.2,4.9,73,0.00,,,0.00,WSDL version 420,2013-09-04 09:16:00,
2013-09-04 19:21:00,62.8,54.1,30.30,East,94,1.9,5.6,73,0.00,,,0.00,WSDL version 420,2013-09-04 09:21:00,
2013-09-04 19:26:00,62.8,54.3,30.30,East,86,3.4,5.6,74,0.00,,,0.00,WSDL version 420,2013-09-04 09:26:00,
2013-09-04 19:31:00,62.7,54.2,30.30,East,79,3.0,4.3,74,0.00,,,0.00,WSDL version 420,2013-09-04 09:31:00,
2013-09-04 19:36:00,62.7,54.2,30.30,NNE,25,2.5,4.9,73,0.00,,,0.00,WSDL version 420,2013-09-04 09:36:00,
2013-09-04 19:41:00,62.6,54.1,30.30,NNE,19,2.5,5.8,73,0.00,,,0.00,WSDL version 420,2013-09-04 09:41:00,
2013-09-04 19:51:00,62.4,53.6,30.30,ENE,68,2.6,6.5,73,0.00,,,0.00,WSDL version 420,2013-09-04 09:51:00,
2013-09-04 19:56:00,62.2,53.5,30.30,North,353,1.9,6.5,73,0.00,,,0.00,WSDL version 420,2013-09-04 09:56:00,
2013-09-04 20:01:00,61.9,53.1,30.30,ENE,77,1.6,3.8,73,-99.99,,,-99.99,WSDL version 420,2013-09-04 10:01:00,
2013-09-04 20:06:00,61.7,53.0,30.30,ESE,121,0.2,3.1,73,0.00,,,0.00,WSDL version 420,2013-09-04 10:06:00,
2013-09-04 20:11:00,61.5,52.7,30.30,East,83,1.8,2.9,73,0.00,,,0.00,WSDL version 420,2013-09-04 10:11:00,
2013-09-04 20:16:00,61.3,52.8,30.30,NE,56,2.2,4.0,74,0.00,,,0.00,WSDL version 420,2013-09-04 10:16:00,
2013-09-04 20:21:00,61.3,52.9,30.30,SSE,167,1.5,4.0,74,0.00,,,0.00,WSDL version 420,2013-09-04 10:21:00,
2013-09-04 20:26:00,61.1,53.2,30.33,East,87,1.4,4.3,75,0.00,,,0.00,WSDL version 420,2013-09-04 10:26:00,
2013-09-04 20:31:00,60.9,52.9,30.33,ESE,103,1.5,4.3,75,0.00,,,0.00,WSDL version 420,2013-09-04 10:31:00,
2013-09-04 20:36:00,60.8,53.6,30.33,East,100,1.6,5.4,77,0.00,,,0.00,WSDL version 420,2013-09-04 10:36:00,
2013-09-04 20:41:00,60.7,53.9,30.33,NNE,17,1.4,5.4,78,0.00,,,0.00,WSDL version 420,2013-09-04 10:41:00,
2013-09-04 20:46:00,60.6,53.9,30.33,ESE,109,1.2,3.8,79,0.00,,,0.00,WSDL version 420,2013-09-04 10:46:00,
2013-09-04 20:51:00,60.4,53.7,30.33,East,101,1.6,2.9,79,0.00,,,0.00,WSDL version 420,2013-09-04 10:51:00,
2013-09-04 20:56:00,60.3,54.2,30.33,East,101,2.6,4.9,81,0.00,,,0.00,WSDL version 420,2013-09-04 10:56:00,
2013-09-04 21:01:00,60.3,54.7,30.33,East,82,2.2,4.9,82,0.00,,,0.00,WSDL version 420,2013-09-04 11:01:00,
2013-09-04 21:06:00,60.1,54.7,30.33,South,176,1.3,4.3,82,0.00,,,0.00,WSDL version 420,2013-09-04 11:06:00,
2013-09-04 21:11:00,59.8,54.2,30.33,North,8,1.2,4.3,82,0.00,,,0.00,WSDL version 420,2013-09-04 11:11:00,
2013-09-04 21:16:00,59.9,54.8,30.33,NNE,15,2.1,3.8,83,0.00,,,0.00,WSDL version 420,2013-09-04 11:16:00,
2013-09-04 21:21:00,59.9,55.0,30.33,SSE,161,1.5,3.8,83,0.00,,,0.00,WSDL version 420,2013-09-04 11:21:00,
2013-09-04 21:26:00,59.7,54.9,30.33,NNE,25,2.0,2.9,84,0.00,,,0.00,WSDL version 420,2013-09-04 11:26:00,
2013-09-04 21:31:00,59.7,55.0,30.33,NE,56,1.5,2.9,84,0.00,,,0.00,WSDL version 420,2013-09-04 11:31:00,
2013-09-04 21:36:00,59.7,55.4,30.33,WSW,248,1.8,3.1,87,0.00,,,0.00,WSDL version 420,2013-09-04 11:36:00,
2013-09-04 21:41:00,59.7,55.8,30.33,SE,138,1.6,3.1,88,-99.99,,,-99.99,WSDL version 420,2013-09-04 11:41:00,
2013-09-04 21:46:00,59.5,55.8,30.33,South,183,1.2,3.8,88,0.00,,,0.00,WSDL version 420,2013-09-04 11:46:00,
2013-09-04 21:51:00,59.7,57.1,30.33,East,86,2.4,4.0,92,0.00,,,0.00,WSDL version 420,2013-09-04 11:51:00,
2013-09-04 21:56:00,59.7,57.5,30.30,East,82,1.7,4.0,92,0.00,,,0.00,WSDL version 420,2013-09-04 11:56:00,
2013-09-04 22:01:00,59.5,57.4,30.30,SE,125,1.4,4.0,92,0.00,,,0.00,WSDL version 420,2013-09-04 12:01:00,
2013-09-04 22:06:00,59.5,57.5,30.30,West,273,1.2,4.0,93,0.00,,,0.00,WSDL version 420,2013-09-04 12:06:00,
2013-09-04 22:11:00,59.4,57.7,30.30,NE,42,1.2,3.8,93,0.00,,,0.00,WSDL version 420,2013-09-04 12:11:00,
2013-09-04 22:16:00,59.4,57.6,30.30,ENE,77,2.7,4.0,94,0.00,,,0.00,WSDL version 420,2013-09-04 12:16:00,
2013-09-04 22:21:00,59.3,57.8,30.30,WNW,287,1.0,4.0,94,0.00,,,0.00,WSDL version 420,2013-09-04 12:21:00,
2013-09-04 22:26:00,59.2,57.7,30.30,ENE,58,1.8,3.6,96,0.00,,,0.00,WSDL version 420,2013-09-04 12:26:00,
2013-09-04 22:31:00,59.2,57.7,30.30,East,80,1.7,3.6,96,0.00,,,0.00,WSDL version 420,2013-09-04 12:31:00,
2013-09-04 22:36:00,59.0,57.7,30.30,East,96,1.6,4.0,96,0.00,,,0.00,WSDL version 420,2013-09-04 12:36:00,
2013-09-04 22:41:00,59.0,57.9,30.27,ESE,103,1.9,4.0,97,0.00,,,0.00,WSDL version 420,2013-09-04 12:41:00,
2013-09-04 22:46:00,58.9,57.9,30.27,East,98,0.4,3.6,97,0.00,,,0.00,WSDL version 420,2013-09-04 12:46:00,
2013-09-04 22:51:00,58.8,58.1,30.27,East,87,1.7,3.4,98,0.00,,,0.00,WSDL version 420,2013-09-04 12:51:00,
2013-09-04 22:56:00,58.8,58.2,30.27,NE,42,1.7,3.4,98,0.00,,,0.00,WSDL version 420,2013-09-04 12:56:00,
2013-09-04 23:01:00,58.6,57.8,30.27,WSW,241,0.7,2.5,97,0.00,,,0.00,WSDL version 420,2013-09-04 13:01:00,
2013-09-04 23:06:00,58.3,57.3,30.27,SW,229,0.0,1.6,97,0.00,,,0.00,WSDL version 420,2013-09-04 13:06:00,
2013-09-04 23:11:00,58.0,57.1,30.27,NW,323,0.0,1.1,97,0.00,,,0.00,WSDL version 420,2013-09-04 13:11:00,
2013-09-04 23:16:00,57.7,56.8,30.27,ENE,74,0.7,1.6,97,-99.99,,,-99.99,WSDL version 420,2013-09-04 13:16:00,
2013-09-04 23:21:00,57.8,57.0,30.27,WNW,290,0.8,2.5,98,0.00,,,0.00,WSDL version 420,2013-09-04 13:21:00,
2013-09-04 23:26:00,57.6,56.8,30.27,West,267,0.8,2.5,98,0.00,,,0.00,WSDL version 420,2013-09-04 13:26:00,
2013-09-04 23:31:00,57.3,56.7,30.27,NE,48,0.0,2.0,98,0.00,,,0.00,WSDL version 420,2013-09-04 13:31:00,
2013-09-04 23:36:00,56.9,56.3,30.27,SE,141,0.0,1.6,98,-99.99,,,-99.99,WSDL version 420,2013-09-04 13:36:00,
2013-09-04 23:41:00,56.6,56.0,30.27,SE,135,0.0,0.0,98,0.00,,,0.00,WSDL version 420,2013-09-04 13:41:00,
2013-09-04 23:46:00,56.7,56.4,30.27,ENE,74,1.0,2.0,99,0.00,,,0.00,WSDL version 420,2013-09-04 13:46:00,
2013-09-04 23:51:00,56.7,56.7,30.27,NNW,334,0.0,2.0,100,0.00,,,0.00,WSDL version 420,2013-09-04 13:51:00,
2013-09-04 23:56:00,56.7,56.7,30.24,NE,39,0.0,1.1,100,0.00,,,0.00,WSDL version 420,2013-09-04 13:56:00,